Time;durP1;ratioP1;P1;durP2;ratioP2;P2;SDS_P1;SDS_P2;PMS_P1;PMS_P2;Temp;Humidity;BMP_temperature;BMP_pressure;BME280_temperature;BME280_humidity;BME280_pressure;Samples;Min_cycle;Max_cycle;Signal;HPM_P1;HPM_P2
2023/04/13 00:00:36;;;;;;;16.65;10.68;;;13.60;67.10;;;;;;6154990;23;20089;-69
2023/04/13 00:03:03;;;;;;;15.00;11.07;;;13.50;67.20;;;;;;6155166;23;19998;-68
2023/04/13 00:05:29;;;;;;;15.32;10.40;;;13.50;67.10;;;;;;6155036;23;20357;-69
2023/04/13 00:07:55;;;;;;;15.52;10.30;;;13.50;67.00;;;;;;6155316;23;20002;-69
2023/04/13 00:10:22;;;;;;;15.77;10.15;;;13.50;66.50;;;;;;6155052;23;20052;-68
2023/04/13 00:12:49;;;;;;;15.85;10.30;;;13.50;66.30;;;;;;6129033;23;20093;-68
2023/04/13 00:15:16;;;;;;;19.42;10.45;;;13.50;66.10;;;;;;6155595;23;20309;-68
2023/04/13 00:17:42;;;;;;;16.05;10.98;;;13.50;66.10;;;;;;6155215;23;20439;-69
2023/04/13 00:20:13;;;;;;;16.30;10.15;;;13.40;66.60;;;;;;6155216;23;20069;-69
2023/04/13 00:22:43;;;;;;;17.70;11.07;;;13.40;67.50;;;;;;6155016;23;20041;-69
2023/04/13 00:25:11;;;;;;;13.93;10.18;;;13.40;68.90;;;;;;6154971;23;20041;-68
2023/04/13 00:27:41;;;;;;;19.13;10.68;;;13.40;71.00;;;;;;6155224;23;20513;-68
2023/04/13 00:30:14;;;;;;;22.13;11.23;;;13.30;73.70;;;;;;6155267;23;20072;-69
2023/04/13 00:32:41;;;;;;;18.35;10.93;;;13.30;74.20;;;;;;6155078;23;20001;-69
2023/04/13 00:35:09;;;;;;;17.85;10.88;;;13.20;75.70;;;;;;6155388;23;20009;-69
2023/04/13 00:37:34;;;;;;;18.67;11.23;;;13.20;76.30;;;;;;6155096;23;20002;-68
2023/04/13 00:40:00;;;;;;;14.63;11.05;;;13.20;76.80;;;;;;6155341;23;20005;-68
2023/04/13 00:42:26;;;;;;;17.42;11.30;;;13.10;77.10;;;;;;6155054;23;20002;-69
2023/04/13 00:44:53;;;;;;;15.38;11.68;;;13.10;78.20;;;;;;6154943;23;20017;-68
2023/04/13 00:47:31;;;;;;;18.75;11.18;;;13.10;80.10;;;;;;6154766;23;19998;-68
2023/04/13 00:50:00;;;;;;;15.80;11.27;;;13.10;81.50;;;;;;6154414;23;20041;-68
2023/04/13 00:52:27;;;;;;;18.65;11.25;;;13.00;81.60;;;;;;6154933;23;20028;-68
2023/04/13 00:54:56;;;;;;;16.75;11.50;;;13.00;81.90;;;;;;6128845;23;20006;-68
2023/04/13 00:57:24;;;;;;;17.63;11.23;;;13.00;83.80;;;;;;6154997;23;20428;-68
2023/04/13 00:59:51;;;;;;;17.58;10.95;;;12.90;84.10;;;;;;6150740;23;20323;-68
2023/04/13 01:02:21;;;;;;;13.95;11.02;;;12.90;84.10;;;;;;6151715;23;20041;-68
2023/04/13 01:04:48;;;;;;;14.70;10.80;;;12.80;84.40;;;;;;6152735;23;20433;-68
2023/04/13 01:07:26;;;;;;;16.92;11.63;;;12.80;85.00;;;;;;6154771;23;20012;-69
2023/04/13 01:10:13;;;;;;;18.95;11.43;;;12.80;85.40;;;;;;6154968;23;20008;-68
2023/04/13 01:13:04;;;;;;;19.50;10.65;;;12.80;86.30;;;;;;6154157;23;20006;-68
2023/04/13 01:15:36;;;;;;;18.30;11.25;;;12.80;87.30;;;;;;6154503;23;20002;-69
2023/04/13 01:18:07;;;;;;;18.05;11.38;;;12.80;87.20;;;;;;6154749;23;20002;-68
2023/04/13 01:20:36;;;;;;;14.45;10.38;;;12.70;88.40;;;;;;6154373;23;20009;-68
2023/04/13 01:23:11;;;;;;;13.68;9.98;;;12.70;88.80;;;;;;6130393;23;20563;-68
2023/04/13 01:25:44;;;;;;;13.90;9.50;;;12.70;88.80;;;;;;6155799;23;20017;-68
2023/04/13 01:28:18;;;;;;;12.38;10.25;;;12.70;88.90;;;;;;6156344;23;20024;-69
2023/04/13 01:30:48;;;;;;;13.38;9.63;;;12.60;89.20;;;;;;6156652;23;20001;-68
2023/04/13 01:33:15;;;;;;;16.63;10.13;;;12.60;89.70;;;;;;6130042;23;20006;-69
2023/04/13 01:35:42;;;;;;;11.27;8.88;;;12.60;90.30;;;;;;6155802;23;20023;-69
2023/04/13 01:38:08;;;;;;;13.05;9.35;;;12.60;90.40;;;;;;6156160;23;20033;-68
2023/04/13 01:40:39;;;;;;;12.75;8.68;;;12.50;90.50;;;;;;6156425;23;20008;-69
2023/04/13 01:43:06;;;;;;;12.48;9.27;;;12.50;90.80;;;;;;6156079;23;20006;-68
2023/04/13 01:45:38;;;;;;;12.20;8.55;;;12.50;90.90;;;;;;6156211;23;20010;-68
2023/04/13 01:48:42;;;;;;;11.02;8.80;;;12.50;91.10;;;;;;6156296;23;19998;-68
2023/04/13 01:51:13;;;;;;;13.38;8.98;;;12.40;91.70;;;;;;6147292;23;20108;-68
2023/04/13 01:54:12;;;;;;;13.87;9.67;;;12.40;92.10;;;;;;6156606;23;20002;-68
2023/04/13 01:56:41;;;;;;;12.57;8.82;;;12.40;92.30;;;;;;6156209;23;20076;-68
2023/04/13 01:59:08;;;;;;;13.38;9.23;;;12.40;92.40;;;;;;6156253;23;20002;-68
2023/04/13 02:01:36;;;;;;;10.07;8.02;;;12.40;92.80;;;;;;6156052;23;19998;-68
2023/04/13 02:04:02;;;;;;;10.02;8.35;;;12.40;92.40;;;;;;6156002;23;20037;-68
2023/04/13 02:06:28;;;;;;;9.65;8.45;;;12.40;92.40;;;;;;6155700;23;20009;-68
2023/04/13 02:08:53;;;;;;;10.13;8.32;;;12.40;92.30;;;;;;6156020;23;20005;-69
2023/04/13 02:11:20;;;;;;;10.68;7.78;;;12.40;92.40;;;;;;6156166;23;20084;-68
2023/04/13 02:13:46;;;;;;;12.77;8.25;;;12.40;92.40;;;;;;6156209;23;20024;-68
2023/04/13 02:16:12;;;;;;;14.63;7.90;;;12.40;92.60;;;;;;6156113;23;20437;-68
2023/04/13 02:18:37;;;;;;;11.20;8.32;;;12.40;92.80;;;;;;6156032;23;20005;-68
2023/04/13 02:21:08;;;;;;;14.07;8.32;;;12.40;92.90;;;;;;6155936;23;20089;-68
2023/04/13 02:23:39;;;;;;;11.00;8.10;;;12.40;92.90;;;;;;6155930;23;20029;-69
2023/04/13 02:26:09;;;;;;;11.88;8.68;;;12.40;93.20;;;;;;6155696;23;20018;-68
2023/04/13 02:28:35;;;;;;;12.20;9.07;;;12.40;93.50;;;;;;6155848;23;20004;-68
2023/04/13 02:31:02;;;;;;;11.35;8.48;;;12.30;93.60;;;;;;6155652;23;20001;-69
2023/04/13 02:33:31;;;;;;;11.65;7.93;;;12.40;94.00;;;;;;6155701;23;20005;-68
2023/04/13 02:35:58;;;;;;;9.85;8.10;;;12.30;94.00;;;;;;6156025;23;20001;-68
2023/04/13 02:38:26;;;;;;;10.65;8.18;;;12.40;94.00;;;;;;6155626;23;20009;-68
2023/04/13 02:40:59;;;;;;;11.43;8.48;;;12.40;93.90;;;;;;6155955;23;20100;-68
2023/04/13 02:43:26;;;;;;;10.93;8.95;;;12.30;94.20;;;;;;6155673;23;20001;-69
2023/04/13 02:45:52;;;;;;;10.15;8.13;;;12.30;94.00;;;;;;6155575;23;20017;-68
2023/04/13 02:48:19;;;;;;;11.18;8.07;;;12.30;94.40;;;;;;6155774;23;20029;-69
2023/04/13 02:50:45;;;;;;;9.90;8.50;;;12.30;94.70;;;;;;6155656;23;20018;-68
2023/04/13 02:53:11;;;;;;;11.32;8.65;;;12.30;94.90;;;;;;6155611;23;20002;-68
2023/04/13 02:55:37;;;;;;;9.88;8.25;;;12.30;94.90;;;;;;6155856;23;20056;-68
2023/04/13 02:58:05;;;;;;;10.25;8.30;;;12.30;95.10;;;;;;6155954;23;20381;-69
2023/04/13 03:00:31;;;;;;;11.40;8.75;;;12.40;95.00;;;;;;6130245;23;20013;-68
2023/04/13 03:02:57;;;;;;;12.10;9.07;;;12.30;95.20;;;;;;6155725;23;19997;-69
2023/04/13 03:05:23;;;;;;;12.13;8.32;;;12.30;95.30;;;;;;6155641;23;20439;-68
2023/04/13 03:07:49;;;;;;;13.63;10.15;;;12.30;95.20;;;;;;6155719;23;20006;-68
2023/04/13 03:10:17;;;;;;;12.57;9.93;;;12.30;95.30;;;;;;6155826;23;20002;-68
2023/04/13 03:12:43;;;;;;;15.68;11.25;;;12.30;95.30;;;;;;6155691;23;20313;-68
2023/04/13 03:15:10;;;;;;;16.77;11.20;;;12.30;95.30;;;;;;6129653;23;20016;-69
2023/04/13 03:17:40;;;;;;;15.52;11.80;;;12.20;95.40;;;;;;6155729;23;20331;-68
2023/04/13 03:20:12;;;;;;;21.27;11.80;;;12.20;95.40;;;;;;6155415;23;19997;-68
2023/04/13 03:22:38;;;;;;;13.23;11.02;;;12.20;95.20;;;;;;6155625;23;19997;-69
2023/04/13 03:25:05;;;;;;;14.45;10.05;;;12.20;94.80;;;;;;6155810;23;20017;-68
2023/04/13 03:27:31;;;;;;;13.75;10.43;;;12.10;94.80;;;;;;6155753;23;20036;-68
2023/04/13 03:29:57;;;;;;;13.05;9.88;;;12.10;94.90;;;;;;6155519;23;19998;-68
2023/04/13 03:32:23;;;;;;;14.25;9.35;;;12.10;95.00;;;;;;6155592;23;20006;-68
2023/04/13 03:34:49;;;;;;;12.23;9.48;;;12.00;94.90;;;;;;6155524;23;20005;-68
2023/04/13 03:37:14;;;;;;;12.25;9.95;;;12.00;94.90;;;;;;6155594;23;20014;-68
2023/04/13 03:39:41;;;;;;;15.25;9.63;;;12.00;95.00;;;;;;6155441;23;20002;-68
2023/04/13 03:42:06;;;;;;;12.98;10.40;;;11.90;95.00;;;;;;6155395;23;20024;-69
2023/04/13 03:44:32;;;;;;;14.93;10.27;;;11.90;94.90;;;;;;6154940;23;20005;-68
2023/04/13 03:46:58;;;;;;;15.20;10.90;;;11.90;95.10;;;;;;6155545;23;20416;-68
2023/04/13 03:49:23;;;;;;;18.85;10.07;;;11.80;95.20;;;;;;6155264;23;20005;-69
2023/04/13 03:51:49;;;;;;;13.55;10.05;;;11.80;95.20;;;;;;6155517;23;20006;-68
2023/04/13 03:54:15;;;;;;;13.75;10.68;;;11.80;95.30;;;;;;6155391;23;20009;-69
2023/04/13 03:56:41;;;;;;;13.48;9.88;;;11.70;95.30;;;;;;6155588;23;20009;-69
2023/04/13 03:59:07;;;;;;;14.90;10.77;;;11.80;95.30;;;;;;6155430;23;20392;-68
2023/04/13 04:01:32;;;;;;;14.30;10.68;;;11.80;95.60;;;;;;6155361;23;20004;-68
2023/04/13 04:03:58;;;;;;;13.52;11.00;;;11.70;95.60;;;;;;6154925;23;20063;-68
2023/04/13 04:06:25;;;;;;;12.73;10.50;;;11.70;95.70;;;;;;6154949;23;20056;-68
2023/04/13 04:08:52;;;;;;;13.25;10.77;;;11.70;95.80;;;;;;6155419;23;20112;-68
2023/04/13 04:11:17;;;;;;;15.75;9.57;;;11.70;96.20;;;;;;6155164;23;20006;-69
2023/04/13 04:13:43;;;;;;;11.90;8.95;;;11.70;96.20;;;;;;6155374;23;20025;-68
2023/04/13 04:16:10;;;;;;;10.90;8.35;;;11.70;96.20;;;;;;6155425;23;20001;-69
2023/04/13 04:18:36;;;;;;;11.80;8.50;;;11.70;96.30;;;;;;6154807;23;20096;-68
2023/04/13 04:21:02;;;;;;;12.32;8.18;;;11.70;96.40;;;;;;6155237;23;20010;-68
2023/04/13 04:23:29;;;;;;;10.10;7.97;;;11.70;96.50;;;;;;6155398;23;20091;-69
2023/04/13 04:25:58;;;;;;;13.70;7.13;;;11.70;96.60;;;;;;6155400;23;20018;-68
2023/04/13 04:28:24;;;;;;;9.25;7.03;;;11.70;96.40;;;;;;6155328;23;20008;-68
2023/04/13 04:30:53;;;;;;;10.68;8.27;;;11.70;96.30;;;;;;6129148;23;20013;-68
2023/04/13 04:33:22;;;;;;;11.52;8.25;;;11.70;96.50;;;;;;6154949;23;20033;-68
2023/04/13 04:35:50;;;;;;;9.85;7.50;;;11.70;96.60;;;;;;6155109;23;20001;-68
2023/04/13 04:38:21;;;;;;;9.75;7.95;;;11.70;96.70;;;;;;6155105;23;19998;-68
2023/04/13 04:40:48;;;;;;;9.80;7.68;;;11.70;96.80;;;;;;6154830;23;20016;-68
2023/04/13 04:43:14;;;;;;;11.05;7.28;;;11.70;96.90;;;;;;6155369;23;19998;-68
2023/04/13 04:45:45;;;;;;;10.80;7.85;;;11.70;97.00;;;;;;6155058;23;20018;-68
2023/04/13 04:48:14;;;;;;;11.32;7.25;;;11.60;97.10;;;;;;6155122;23;20005;-69
2023/04/13 04:50:43;;;;;;;11.30;7.35;;;11.60;97.40;;;;;;6154808;23;20096;-69
2023/04/13 04:53:10;;;;;;;9.90;7.05;;;11.60;97.40;;;;;;6155340;23;19997;-68
2023/04/13 04:55:37;;;;;;;10.27;7.60;;;11.60;97.60;;;;;;6156190;23;20016;-69
2023/04/13 04:58:03;;;;;;;9.30;7.80;;;11.70;97.70;;;;;;6156787;23;20496;-68
2023/04/13 05:00:29;;;;;;;12.82;7.22;;;11.70;97.60;;;;;;6157200;23;20028;-68
2023/04/13 05:02:56;;;;;;;9.00;7.07;;;11.70;97.90;;;;;;6157164;23;20002;-68
2023/04/13 05:05:23;;;;;;;8.88;6.60;;;11.70;97.80;;;;;;6157145;23;20036;-68
2023/04/13 05:07:49;;;;;;;9.32;7.30;;;11.70;98.00;;;;;;6157067;23;20061;-68
2023/04/13 05:10:15;;;;;;;10.18;6.60;;;11.70;98.10;;;;;;6157074;23;20398;-68
2023/04/13 05:12:41;;;;;;;8.50;6.50;;;11.70;98.20;;;;;;6156996;23;19998;-68
2023/04/13 05:15:07;;;;;;;8.75;6.70;;;11.70;98.30;;;;;;6156839;23;20013;-67
2023/04/13 05:17:35;;;;;;;7.88;6.00;;;11.70;98.20;;;;;;6156923;23;20068;-66
2023/04/13 05:20:02;;;;;;;13.32;6.70;;;11.70;98.30;;;;;;6130701;23;20005;-68
2023/04/13 05:22:28;;;;;;;8.05;6.15;;;11.70;98.20;;;;;;6156879;23;20008;-69
2023/04/13 05:24:53;;;;;;;11.07;5.90;;;11.70;98.20;;;;;;6156980;23;20084;-68
2023/04/13 05:27:19;;;;;;;8.85;5.80;;;11.70;98.40;;;;;;6156697;23;20006;-66
2023/04/13 05:29:45;;;;;;;6.70;5.32;;;11.70;98.50;;;;;;6156216;23;20073;-66
2023/04/13 05:32:11;;;;;;;7.00;6.25;;;11.70;98.80;;;;;;6156297;23;20061;-68
2023/04/13 05:34:37;;;;;;;7.35;5.57;;;11.80;98.90;;;;;;6156238;23;20041;-68
2023/04/13 05:37:03;;;;;;;9.80;4.70;;;11.80;98.80;;;;;;6156678;23;20005;-68
2023/04/13 05:39:28;;;;;;;8.25;5.03;;;11.80;98.50;;;;;;6156469;23;20002;-68
2023/04/13 05:41:55;;;;;;;10.40;5.47;;;11.80;98.50;;;;;;6156280;23;20005;-69
2023/04/13 05:44:20;;;;;;;6.55;5.22;;;11.90;98.30;;;;;;6156420;23;20012;-68
2023/04/13 05:46:49;;;;;;;8.20;4.88;;;11.90;98.10;;;;;;6156690;23;20029;-68
2023/04/13 05:49:15;;;;;;;6.55;4.97;;;11.90;98.10;;;;;;6156223;23;20016;-68
2023/04/13 05:51:40;;;;;;;9.50;5.35;;;12.00;97.90;;;;;;6156384;23;20045;-68
2023/04/13 05:54:08;;;;;;;6.30;5.15;;;11.90;98.10;;;;;;6156576;23;20006;-69
2023/04/13 05:56:35;;;;;;;7.85;5.57;;;11.90;98.20;;;;;;6156483;23;20001;-68
2023/04/13 05:59:03;;;;;;;8.32;5.57;;;11.90;98.20;;;;;;6156290;23;20006;-68
2023/04/13 06:01:29;;;;;;;6.38;5.00;;;11.90;98.20;;;;;;6156177;23;20088;-68
2023/04/13 06:03:55;;;;;;;6.47;4.82;;;11.90;98.20;;;;;;6156578;23;20289;-68
2023/04/13 06:06:21;;;;;;;6.55;4.82;;;11.90;98.20;;;;;;6156026;23;20511;-68
2023/04/13 06:08:48;;;;;;;7.63;5.50;;;11.90;98.00;;;;;;6156337;23;20029;-68
2023/04/13 06:11:14;;;;;;;7.95;5.18;;;12.00;97.90;;;;;;6156272;23;20002;-68
2023/04/13 06:13:40;;;;;;;7.35;4.95;;;12.00;97.90;;;;;;6130403;23;20009;-68
2023/04/13 06:16:10;;;;;;;7.43;4.95;;;12.00;97.90;;;;;;6156133;23;20033;-68
2023/04/13 06:18:36;;;;;;;7.82;5.72;;;12.00;98.00;;;;;;6156261;23;20008;-68
2023/04/13 06:21:02;;;;;;;7.72;6.03;;;12.00;98.10;;;;;;6156150;23;20006;-68
2023/04/13 06:23:28;;;;;;;6.70;5.40;;;12.00;98.20;;;;;;6155440;23;19997;-68
2023/04/13 06:25:54;;;;;;;6.72;5.13;;;12.00;98.20;;;;;;6155097;23;20068;-68
2023/04/13 06:28:20;;;;;;;7.75;5.53;;;12.00;98.30;;;;;;6155065;23;20008;-68
2023/04/13 06:30:46;;;;;;;9.35;5.55;;;12.00;98.40;;;;;;6155536;23;20024;-68
2023/04/13 06:33:13;;;;;;;7.80;5.75;;;12.00;98.40;;;;;;6155440;23;19997;-68
2023/04/13 06:35:39;;;;;;;7.97;5.28;;;12.00;98.50;;;;;;6155933;23;20001;-68
2023/04/13 06:38:06;;;;;;;10.45;5.65;;;12.00;98.30;;;;;;6155874;23;20008;-68
2023/04/13 06:40:32;;;;;;;11.77;5.70;;;12.00;98.20;;;;;;6156121;23;20076;-68
2023/04/13 06:42:57;;;;;;;9.38;5.22;;;12.10;98.00;;;;;;6155974;23;20380;-68
2023/04/13 06:45:23;;;;;;;8.73;5.75;;;12.10;98.20;;;;;;6155905;23;20009;-68
2023/04/13 06:47:52;;;;;;;7.50;5.65;;;12.10;98.00;;;;;;6155836;23;19998;-68
2023/04/13 06:50:18;;;;;;;7.15;5.20;;;12.10;97.90;;;;;;6155479;23;20052;-68
2023/04/13 06:52:46;;;;;;;8.65;6.07;;;12.10;98.10;;;;;;6155598;23;20328;-68
2023/04/13 06:55:13;;;;;;;7.00;5.70;;;12.10;98.30;;;;;;6155565;23;20001;-68
2023/04/13 06:57:39;;;;;;;10.30;5.90;;;12.10;98.50;;;;;;6155881;23;20002;-68
2023/04/13 07:00:07;;;;;;;10.85;6.57;;;12.10;98.40;;;;;;6155983;23;20013;-68
2023/04/13 07:02:33;;;;;;;9.50;7.15;;;12.10;98.50;;;;;;6155434;23;20382;-68
2023/04/13 07:04:59;;;;;;;11.35;6.32;;;12.10;98.60;;;;;;6155762;23;20014;-69
2023/04/13 07:07:25;;;;;;;10.50;6.72;;;12.10;99.00;;;;;;6155613;23;20424;-68
2023/04/13 07:09:51;;;;;;;8.50;6.57;;;12.10;99.10;;;;;;6156097;23;20014;-69
2023/04/13 07:12:17;;;;;;;8.70;6.15;;;12.10;99.40;;;;;;6155775;23;20043;-68
2023/04/13 07:14:45;;;;;;;10.73;6.88;;;12.10;99.40;;;;;;6155888;23;20020;-68
2023/04/13 07:17:11;;;;;;;10.95;7.65;;;12.10;99.40;;;;;;6155534;23;20412;-68
2023/04/13 07:19:37;;;;;;;9.95;6.22;;;12.10;99.50;;;;;;6155123;23;19998;-68
2023/04/13 07:22:03;;;;;;;9.98;6.40;;;12.10;99.60;;;;;;6155374;23;20009;-68
2023/04/13 07:24:29;;;;;;;9.38;6.35;;;12.10;99.40;;;;;;6155407;23;20002;-68
2023/04/13 07:26:56;;;;;;;9.77;7.18;;;12.10;99.40;;;;;;6155605;23;20005;-68
2023/04/13 07:29:25;;;;;;;13.23;7.53;;;12.10;99.30;;;;;;6155767;23;20009;-68
2023/04/13 07:31:51;;;;;;;9.40;6.60;;;12.10;99.40;;;;;;6155674;23;20036;-68
2023/04/13 07:34:17;;;;;;;10.65;6.80;;;12.10;99.50;;;;;;6155606;23;19998;-68
2023/04/13 07:36:43;;;;;;;10.23;7.13;;;12.10;99.70;;;;;;6155773;23;20005;-67
2023/04/13 07:39:10;;;;;;;11.73;7.47;;;12.00;99.70;;;;;;6154787;23;20056;-68
2023/04/13 07:41:36;;;;;;;10.38;6.43;;;12.00;99.80;;;;;;6155315;23;19997;-67
2023/04/13 07:44:05;;;;;;;12.15;6.85;;;12.10;99.90;;;;;;6155441;23;20006;-68
2023/04/13 07:46:32;;;;;;;9.25;6.50;;;12.10;99.90;;;;;;6154982;23;20018;-67
2023/04/13 07:48:59;;;;;;;10.80;7.30;;;12.10;99.90;;;;;;6155366;23;20474;-68
2023/04/13 07:51:25;;;;;;;9.18;6.78;;;12.10;99.90;;;;;;6150182;23;20321;-68
2023/04/13 07:53:51;;;;;;;10.45;6.97;;;12.10;99.90;;;;;;6155528;23;20008;-67
2023/04/13 07:56:17;;;;;;;8.52;6.85;;;12.10;99.90;;;;;;6155389;23;20416;-67
2023/04/13 07:58:44;;;;;;;11.13;6.85;;;12.10;99.90;;;;;;6155574;23;20301;-67
2023/04/13 08:01:10;;;;;;;10.65;7.43;;;12.10;99.90;;;;;;6154448;23;20464;-67
2023/04/13 08:03:36;;;;;;;10.02;6.70;;;12.10;99.90;;;;;;6155501;23;20085;-67
2023/04/13 08:06:09;;;;;;;10.45;7.00;;;12.00;99.90;;;;;;6155777;23;20021;-67
2023/04/13 08:08:35;;;;;;;;;;;12.00;99.90;;;;;;6156162;23;20013;-67
2023/04/13 08:11:00;;;;;;;14.35;6.97;;;12.00;99.90;;;;;;6155405;23;19900;-67
2023/04/13 08:13:28;;;;;;;12.35;6.80;;;12.00;99.90;;;;;;6155101;23;20005;-67
2023/04/13 08:15:56;;;;;;;9.40;7.10;;;12.10;99.90;;;;;;6155026;23;20032;-67
2023/04/13 08:18:23;;;;;;;10.60;7.32;;;12.10;99.90;;;;;;6155681;23;20010;-67
2023/04/13 08:20:49;;;;;;;10.25;7.60;;;12.00;99.90;;;;;;6154944;23;20006;-67
2023/04/13 08:23:15;;;;;;;8.30;6.45;;;12.00;99.90;;;;;;6155061;23;20420;-67
2023/04/13 08:25:41;;;;;;;10.77;6.63;;;12.10;99.90;;;;;;6155294;23;20024;-67
2023/04/13 08:28:08;;;;;;;11.52;6.90;;;12.10;99.90;;;;;;6155212;23;20070;-67
2023/04/13 08:30:35;;;;;;;11.73;6.97;;;12.10;99.90;;;;;;6156048;23;20001;-67
2023/04/13 08:33:01;;;;;;;15.63;7.05;;;12.10;99.90;;;;;;6157053;23;20002;-67
2023/04/13 08:35:27;;;;;;;11.85;6.60;;;12.10;99.90;;;;;;6156969;23;20009;-67
2023/04/13 08:37:53;;;;;;;12.18;7.05;;;12.10;99.90;;;;;;6157433;23;20010;-67
2023/04/13 08:40:20;;;;;;;9.95;6.40;;;12.10;99.90;;;;;;6157592;23;20016;-67
2023/04/13 08:42:46;;;;;;;11.80;6.45;;;12.10;99.90;;;;;;6156874;23;20026;-67
2023/04/13 08:45:13;;;;;;;12.02;7.15;;;12.20;99.90;;;;;;6156745;23;20044;-67
2023/04/13 08:47:40;;;;;;;8.02;5.60;;;12.20;99.90;;;;;;6157106;23;20454;-67
2023/04/13 08:50:07;;;;;;;9.10;6.55;;;12.20;99.90;;;;;;6156917;23;20510;-67
2023/04/13 08:52:35;;;;;;;9.52;6.80;;;12.20;99.90;;;;;;6156835;23;20336;-67
2023/04/13 08:55:03;;;;;;;11.05;6.68;;;12.20;99.90;;;;;;6130701;23;20059;-67
2023/04/13 08:57:30;;;;;;;9.85;6.97;;;12.20;99.90;;;;;;6157103;23;20421;-67
2023/04/13 08:59:57;;;;;;;8.52;6.78;;;12.20;99.90;;;;;;6156997;23;20028;-67
2023/04/13 09:02:27;;;;;;;9.18;6.25;;;12.20;99.90;;;;;;6156862;23;20008;-67
2023/04/13 09:05:04;;;;;;;14.15;6.93;;;12.20;99.90;;;;;;6156471;23;20056;-67
2023/04/13 09:07:33;;;;;;;7.72;6.30;;;12.30;99.90;;;;;;6156563;23;20002;-68
2023/04/13 09:09:59;;;;;;;12.13;6.93;;;12.30;99.90;;;;;;6156656;23;20088;-67
2023/04/13 09:12:26;;;;;;;8.25;5.38;;;12.30;99.90;;;;;;6156759;23;20060;-67
2023/04/13 09:14:53;;;;;;;9.02;6.38;;;12.30;99.90;;;;;;6156474;23;20076;-67
2023/04/13 09:17:27;;;;;;;9.63;6.47;;;12.30;99.90;;;;;;6156530;23;20060;-67
2023/04/13 09:19:56;;;;;;;11.13;6.38;;;12.30;99.90;;;;;;6156512;23;19998;-68
2023/04/13 09:22:23;;;;;;;8.10;6.20;;;12.30;99.90;;;;;;6156894;23;20005;-67
2023/04/13 09:24:49;;;;;;;10.60;5.55;;;12.40;99.90;;;;;;6156774;23;20021;-67
2023/04/13 09:27:22;;;;;;;9.07;5.90;;;12.40;99.90;;;;;;6156433;23;20384;-67
2023/04/13 09:29:50;;;;;;;8.63;5.97;;;12.50;99.90;;;;;;6156364;23;20006;-67
2023/04/13 09:32:26;;;;;;;9.38;6.05;;;12.50;99.90;;;;;;6156898;23;20164;-68
2023/04/13 09:34:58;;;;;;;10.18;6.70;;;12.50;99.90;;;;;;6156293;23;20360;-68
2023/04/13 09:37:27;;;;;;;11.10;6.78;;;12.60;99.90;;;;;;6156284;23;20006;-68
2023/04/13 09:39:53;;;;;;;10.27;6.47;;;12.60;99.90;;;;;;6156653;23;20327;-68
2023/04/13 09:42:19;;;;;;;8.73;6.45;;;12.60;99.90;;;;;;6155880;23;20487;-68
2023/04/13 09:44:57;;;;;;;11.52;7.38;;;12.60;99.90;;;;;;6130179;23;20047;-68
2023/04/13 09:47:25;;;;;;;12.43;6.70;;;12.60;99.90;;;;;;6129868;23;20467;-68
2023/04/13 09:49:51;;;;;;;11.18;6.38;;;12.70;99.90;;;;;;6156010;23;20025;-67
2023/04/13 09:52:23;;;;;;;10.35;6.10;;;12.70;99.90;;;;;;6155884;23;20420;-68
2023/04/13 09:54:54;;;;;;;9.73;7.07;;;12.60;99.90;;;;;;6155850;23;20491;-68
2023/04/13 09:57:27;;;;;;;10.00;6.35;;;12.60;99.90;;;;;;6155783;23;20105;-68
2023/04/13 09:59:55;;;;;;;12.23;7.20;;;12.60;99.90;;;;;;6154369;23;20001;-68
2023/04/13 10:02:21;;;;;;;8.13;6.45;;;12.60;99.90;;;;;;6156329;23;20006;-68
2023/04/13 10:04:47;;;;;;;9.85;7.13;;;12.60;99.90;;;;;;6155548;23;20023;-68
2023/04/13 10:07:12;;;;;;;12.10;6.97;;;12.60;99.90;;;;;;6155996;23;20002;-68
2023/04/13 10:09:40;;;;;;;10.30;6.45;;;12.70;99.90;;;;;;6155768;23;19997;-68
2023/04/13 10:12:12;;;;;;;13.75;7.20;;;12.70;99.90;;;;;;6155647;23;20093;-68
2023/04/13 10:14:42;;;;;;;8.85;6.25;;;12.60;99.90;;;;;;6154620;23;19997;-68
2023/04/13 10:17:38;;;;;;;9.88;6.10;;;12.60;99.90;;;;;;6129591;23;20375;-68
2023/04/13 10:20:12;;;;;;;8.65;6.00;;;12.60;99.90;;;;;;6155522;23;20001;-68
2023/04/13 10:22:41;;;;;;;14.32;6.20;;;12.70;99.90;;;;;;6156168;23;20447;-68
2023/04/13 10:25:14;;;;;;;9.88;6.05;;;12.70;99.90;;;;;;6155641;23;20010;-68
2023/04/13 10:27:40;;;;;;;8.07;5.30;;;12.70;99.90;;;;;;6156019;23;20326;-67
2023/04/13 10:30:16;;;;;;;8.63;5.63;;;12.70;99.90;;;;;;6155362;23;20331;-67
2023/04/13 10:32:42;;;;;;;10.82;6.05;;;12.70;99.90;;;;;;6155849;23;20053;-68
2023/04/13 10:35:10;;;;;;;11.00;5.82;;;12.70;99.90;;;;;;6155517;23;19997;-67
2023/04/13 10:37:38;;;;;;;8.65;5.60;;;12.70;99.90;;;;;;6155741;23;20005;-68
2023/04/13 10:40:07;;;;;;;9.82;6.40;;;12.60;99.90;;;;;;6155559;23;20068;-68
2023/04/13 10:42:41;;;;;;;11.55;6.40;;;12.70;99.90;;;;;;6155414;23;20006;-68
2023/04/13 10:45:17;;;;;;;9.75;5.75;;;12.70;99.90;;;;;;6155018;23;20018;-68
2023/04/13 10:47:43;;;;;;;9.65;6.15;;;12.60;99.90;;;;;;6155556;23;20002;-68
2023/04/13 10:50:28;;;;;;;7.97;5.18;;;12.70;99.90;;;;;;6155104;23;20013;-68
2023/04/13 10:53:05;;;;;;;8.93;5.75;;;12.70;99.90;;;;;;6155392;23;20428;-68
2023/04/13 10:55:32;;;;;;;9.10;5.18;;;12.60;99.90;;;;;;6155534;23;20467;-68
2023/04/13 10:57:59;;;;;;;7.93;5.68;;;12.70;99.90;;;;;;6155345;23;19998;-68
2023/04/13 11:00:28;;;;;;;7.15;4.80;;;12.70;99.90;;;;;;6155858;23;20001;-67
2023/04/13 11:02:56;;;;;;;6.25;4.43;;;12.60;99.90;;;;;;6155844;23;20033;-68
2023/04/13 11:05:23;;;;;;;8.27;4.60;;;12.60;99.90;;;;;;6154873;23;20336;-68
2023/04/13 11:07:50;;;;;;;7.07;4.68;;;12.60;99.90;;;;;;6154999;23;20013;-68
2023/04/13 11:10:23;;;;;;;14.00;5.78;;;12.60;99.90;;;;;;6155338;23;20025;-68
2023/04/13 11:12:51;;;;;;;5.88;4.47;;;12.60;99.90;;;;;;6154822;23;20026;-68
2023/04/13 11:15:35;;;;;;;7.40;4.80;;;12.60;99.90;;;;;;6155268;23;20331;-68
2023/04/13 11:18:02;;;;;;;7.72;4.30;;;12.60;99.90;;;;;;6155501;23;20432;-68
2023/04/13 11:20:31;;;;;;;7.05;5.03;;;12.60;99.90;;;;;;6155033;23;20057;-68
2023/04/13 11:22:58;;;;;;;5.90;4.40;;;12.60;99.90;;;;;;6155386;23;20076;-68
2023/04/13 11:25:25;;;;;;;8.57;5.03;;;12.60;99.90;;;;;;6155491;23;20010;-68
2023/04/13 11:27:58;;;;;;;8.02;5.25;;;12.60;99.90;;;;;;6155295;23;20033;-68
2023/04/13 11:30:25;;;;;;;8.27;4.95;;;12.60;99.90;;;;;;6155503;23;20427;-68
2023/04/13 11:32:54;;;;;;;9.88;5.43;;;12.60;99.90;;;;;;6155644;23;20073;-68
2023/04/13 11:35:22;;;;;;;9.65;5.30;;;12.60;99.90;;;;;;6155295;23;20010;-68
2023/04/13 11:37:52;;;;;;;9.88;4.55;;;12.60;99.90;;;;;;6155405;23;20008;-68
2023/04/13 11:40:26;;;;;;;7.60;4.80;;;12.50;99.90;;;;;;6155597;23;20001;-67
2023/04/13 11:42:57;;;;;;;10.57;4.75;;;12.60;99.90;;;;;;6155360;23;20001;-68
2023/04/13 11:45:27;;;;;;;10.63;4.93;;;12.60;99.90;;;;;;6155332;23;20100;-68
2023/04/13 11:47:55;;;;;;;8.52;4.97;;;12.60;99.90;;;;;;6155373;23;20005;-67
2023/04/13 11:50:22;;;;;;;8.00;5.38;;;12.60;99.90;;;;;;6155147;23;20096;-67
2023/04/13 11:52:51;;;;;;;8.60;5.28;;;12.60;99.90;;;;;;6155370;23;20096;-67
2023/04/13 11:55:18;;;;;;;7.75;4.78;;;12.60;99.90;;;;;;6155441;23;20006;-67
2023/04/13 11:57:44;;;;;;;10.25;5.43;;;12.60;99.90;;;;;;6155378;23;20328;-68
2023/04/13 12:00:17;;;;;;;5.78;4.57;;;12.60;99.90;;;;;;6155276;23;20002;-68
2023/04/13 12:02:43;;;;;;;8.60;4.97;;;12.60;99.90;;;;;;6155583;23;20009;-67
2023/04/13 12:05:23;;;;;;;8.07;5.15;;;12.70;99.90;;;;;;6155127;23;20037;-68
2023/04/13 12:07:52;;;;;;;6.55;4.60;;;12.70;99.90;;;;;;6155500;23;20001;-67
2023/04/13 12:10:23;;;;;;;7.35;4.43;;;12.70;99.90;;;;;;6155307;23;20428;-68
2023/04/13 12:12:59;;;;;;;7.45;4.65;;;12.70;99.90;;;;;;6154790;23;20001;-68
2023/04/13 12:15:31;;;;;;;9.07;4.75;;;12.70;99.90;;;;;;6155394;23;19998;-68
2023/04/13 12:17:58;;;;;;;5.90;4.22;;;12.70;99.90;;;;;;6155252;23;20361;-68
2023/04/13 12:20:25;;;;;;;5.78;4.05;;;12.70;99.90;;;;;;6155241;23;20084;-68
2023/04/13 12:22:51;;;;;;;8.40;4.50;;;12.70;99.90;;;;;;6155706;23;20017;-68
2023/04/13 12:25:18;;;;;;;7.57;4.50;;;12.70;99.90;;;;;;6155263;23;20439;-68
2023/04/13 12:27:44;;;;;;;8.18;4.07;;;12.60;99.90;;;;;;6155153;23;20001;-68
2023/04/13 12:30:12;;;;;;;8.65;4.47;;;12.60;99.90;;;;;;6155495;23;20037;-68
2023/04/13 12:32:45;;;;;;;8.02;4.20;;;12.60;99.90;;;;;;6155305;23;20008;-67
2023/04/13 12:35:12;;;;;;;8.63;3.80;;;12.60;99.90;;;;;;6155168;23;20002;-68
2023/04/13 12:37:44;;;;;;;6.38;4.10;;;12.60;99.90;;;;;;6155244;23;20017;-67
2023/04/13 12:40:13;;;;;;;7.22;3.85;;;12.70;99.90;;;;;;6154873;23;20002;-68
2023/04/13 12:42:39;;;;;;;9.45;4.22;;;12.70;99.90;;;;;;6128797;23;20052;-68
2023/04/13 12:45:06;;;;;;;6.05;3.60;;;12.60;99.90;;;;;;6155209;23;20429;-68